createdAt,value
2022-08-25T00:01:23.649Z,4.90
2022-08-25T00:03:55.190Z,5.00
2022-08-25T00:06:23.785Z,4.77
2022-08-25T00:08:51.042Z,5.50
2022-08-25T00:11:21.365Z,5.10
2022-08-25T00:13:54.211Z,4.40
2022-08-25T00:16:22.831Z,5.10
2022-08-25T00:18:53.338Z,5.13
2022-08-25T00:21:20.361Z,5.20
2022-08-25T00:23:47.330Z,5.00
2022-08-25T00:26:15.727Z,5.03
2022-08-25T00:28:43.814Z,4.90
2022-08-25T00:31:18.390Z,5.00
2022-08-25T00:33:47.279Z,5.67
2022-08-25T00:36:15.731Z,5.47
2022-08-25T00:38:45.149Z,5.43
2022-08-25T00:41:16.910Z,5.70
2022-08-25T00:43:59.143Z,4.60
2022-08-25T00:46:32.291Z,5.27
2022-08-25T00:49:03.525Z,5.03
2022-08-25T00:51:42.909Z,5.00
2022-08-25T00:54:16.649Z,5.50
2022-08-25T00:56:45.331Z,6.43
2022-08-25T00:59:13.854Z,5.50
2022-08-25T01:01:41.021Z,5.70
2022-08-25T01:04:08.521Z,5.57
2022-08-25T01:06:39.164Z,4.93
2022-08-25T01:09:07.327Z,5.13
2022-08-25T01:11:35.742Z,4.60
2022-08-25T01:14:06.552Z,4.87
2022-08-25T01:16:38.492Z,4.43
2022-08-25T01:19:07.197Z,4.60
2022-08-25T01:21:40.267Z,4.30
2022-08-25T01:24:07.513Z,4.10
2022-08-25T01:26:35.601Z,4.30
2022-08-25T01:29:21.602Z,4.50
2022-08-25T01:31:50.194Z,4.40
2022-08-25T01:34:18.521Z,4.03
2022-08-25T01:36:46.022Z,4.40
2022-08-25T01:39:13.897Z,4.13
2022-08-25T01:41:51.344Z,4.87
2022-08-25T01:44:19.303Z,4.43
2022-08-25T01:46:46.188Z,5.47
2022-08-25T01:49:13.081Z,5.67
2022-08-25T01:51:47.051Z,4.30
2022-08-25T01:54:14.021Z,4.30
2022-08-25T01:56:40.918Z,5.40
2022-08-25T01:59:07.789Z,4.03
2022-08-25T02:01:35.355Z,4.43
2022-08-25T02:04:02.322Z,4.40
2022-08-25T02:06:33.118Z,4.40
2022-08-25T02:09:05.678Z,4.30
2022-08-25T02:11:33.418Z,4.07
2022-08-25T02:14:01.058Z,4.77
2022-08-25T02:16:33.992Z,4.83
2022-08-25T02:19:01.695Z,4.67
2022-08-25T02:21:28.602Z,5.07
2022-08-25T02:23:56.962Z,4.27
2022-08-25T02:26:24.067Z,4.10
2022-08-25T02:28:52.659Z,4.40
2022-08-25T02:31:21.776Z,4.40
2022-08-25T02:33:49.520Z,4.10
2022-08-25T02:36:16.790Z,3.63
2022-08-25T02:38:43.925Z,3.97
2022-08-25T02:41:14.902Z,3.57
2022-08-25T02:43:43.078Z,4.83
2022-08-25T02:46:11.435Z,4.30
2022-08-25T02:48:40.035Z,4.70
2022-08-25T02:51:10.107Z,4.33
2022-08-25T02:53:39.789Z,4.37
2022-08-25T02:56:10.798Z,4.83
2022-08-25T02:58:38.841Z,4.40
2022-08-25T03:01:06.866Z,4.43
2022-08-25T03:03:38.814Z,4.80
2022-08-25T03:06:08.783Z,3.93
2022-08-25T03:08:36.971Z,4.47
2022-08-25T03:11:05.206Z,4.03
2022-08-25T03:13:32.768Z,4.10
2022-08-25T03:16:00.543Z,3.93
2022-08-25T03:18:28.160Z,3.87
2022-08-25T03:20:55.450Z,4.50
2022-08-25T03:23:22.396Z,4.23
2022-08-25T03:26:07.910Z,4.30
2022-08-25T03:28:35.686Z,4.47
2022-08-25T03:31:02.557Z,4.93
2022-08-25T03:33:30.356Z,4.37
2022-08-25T03:35:57.710Z,3.93
2022-08-25T03:38:25.429Z,4.63
2022-08-25T03:40:52.796Z,4.00
2022-08-25T03:43:20.446Z,4.60
2022-08-25T03:45:48.133Z,4.00
2022-08-25T03:48:16.647Z,4.27
2022-08-25T03:50:52.068Z,4.67
2022-08-25T03:53:20.128Z,4.10
2022-08-25T03:55:47.618Z,4.90
2022-08-25T03:58:14.901Z,4.10
2022-08-25T04:00:42.298Z,4.60
2022-08-25T04:03:09.505Z,4.60
2022-08-25T04:05:36.374Z,4.63
2022-08-25T04:08:03.618Z,4.83
2022-08-25T04:10:31.243Z,5.00
2022-08-25T04:12:58.338Z,4.47
2022-08-25T04:15:28.522Z,5.07
2022-08-25T04:17:58.989Z,4.80
2022-08-25T04:20:26.630Z,4.43
2022-08-25T04:22:53.537Z,4.10
2022-08-25T04:25:20.546Z,4.87
2022-08-25T04:27:47.383Z,5.10
2022-08-25T04:30:14.822Z,5.50
2022-08-25T04:32:41.704Z,5.20
2022-08-25T04:35:09.987Z,4.60
2022-08-25T04:37:36.872Z,4.63
2022-08-25T04:40:04.963Z,4.20
2022-08-25T04:42:31.918Z,4.13
2022-08-25T04:44:59.418Z,4.80
2022-08-25T04:47:26.414Z,4.33
2022-08-25T04:49:55.033Z,4.43
2022-08-25T04:52:21.888Z,4.73
2022-08-25T04:54:48.734Z,4.17
2022-08-25T04:57:15.598Z,4.80
2022-08-25T04:59:42.464Z,4.23
2022-08-25T05:02:09.938Z,5.47
2022-08-25T05:04:37.443Z,4.60
2022-08-25T05:07:05.568Z,4.87
2022-08-25T05:09:33.053Z,4.90
2022-08-25T05:12:01.621Z,5.50
2022-08-25T05:14:29.449Z,4.37
2022-08-25T05:16:56.826Z,4.60
2022-08-25T05:19:24.445Z,4.43
2022-08-25T05:21:52.271Z,4.47
2022-08-25T05:24:19.405Z,4.33
2022-08-25T05:26:46.299Z,4.40
2022-08-25T05:29:14.497Z,4.27
2022-08-25T05:31:47.108Z,4.47
2022-08-25T05:34:18.913Z,4.70
2022-08-25T05:36:46.566Z,5.17
2022-08-25T05:39:13.551Z,4.50
2022-08-25T05:41:40.789Z,4.60
2022-08-25T05:44:08.189Z,4.80
2022-08-25T05:46:35.125Z,4.60
2022-08-25T05:49:02.043Z,4.47
2022-08-25T05:51:28.990Z,4.80
2022-08-25T05:53:55.916Z,4.57
2022-08-25T05:56:22.799Z,4.60
2022-08-25T05:58:50.429Z,3.93
2022-08-25T06:01:47.954Z,4.67
2022-08-25T06:04:18.240Z,3.80
2022-08-25T06:06:45.307Z,3.80
2022-08-25T06:09:12.239Z,4.47
2022-08-25T06:11:40.474Z,4.10
2022-08-25T06:14:09.263Z,3.70
2022-08-25T06:16:36.330Z,4.60
2022-08-25T06:19:03.663Z,4.97
2022-08-25T06:21:30.754Z,4.73
2022-08-25T06:23:57.675Z,4.30
2022-08-25T06:26:25.127Z,4.43
2022-08-25T06:28:53.278Z,4.10
2022-08-25T06:31:22.442Z,4.10
2022-08-25T06:33:50.390Z,4.47
2022-08-25T06:36:17.601Z,4.67
2022-08-25T06:38:45.568Z,4.40
2022-08-25T06:41:13.090Z,4.20
2022-08-25T06:43:47.297Z,4.90
2022-08-25T06:46:21.535Z,5.07
2022-08-25T06:48:49.627Z,4.40
2022-08-25T06:51:19.213Z,3.87
2022-08-25T06:53:49.006Z,4.20
2022-08-25T06:56:21.584Z,3.80
2022-08-25T06:58:50.894Z,4.07
2022-08-25T07:01:25.887Z,4.00
2022-08-25T07:03:57.609Z,4.90
2022-08-25T07:06:31.649Z,4.03
2022-08-25T07:08:59.733Z,4.77
2022-08-25T07:11:26.637Z,4.20
2022-08-25T07:13:54.146Z,3.50
2022-08-25T07:16:21.786Z,4.80
2022-08-25T07:18:49.582Z,4.50
2022-08-25T07:21:17.478Z,4.57
2022-08-25T07:23:46.822Z,4.93
2022-08-25T07:26:39.234Z,5.47
2022-08-25T07:29:14.730Z,5.50
2022-08-25T07:31:42.130Z,5.77
2022-08-25T07:34:28.511Z,5.40
2022-08-25T07:36:56.948Z,5.77
2022-08-25T07:39:25.418Z,4.90
2022-08-25T07:41:53.202Z,5.40
2022-08-25T07:44:21.913Z,5.00
2022-08-25T07:46:50.570Z,5.43
2022-08-25T07:49:23.187Z,5.77
2022-08-25T07:52:06.822Z,5.23
2022-08-25T07:54:37.709Z,4.23
2022-08-25T07:57:07.238Z,5.73
2022-08-25T07:59:39.576Z,5.57
2022-08-25T08:02:17.844Z,5.43
2022-08-25T08:04:48.908Z,4.77
2022-08-25T08:07:36.976Z,5.23
2022-08-25T08:10:42.193Z,4.63
2022-08-25T08:12:59.181Z,4.20
2022-08-25T08:15:29.774Z,4.50
2022-08-25T08:17:58.453Z,5.20
2022-08-25T08:20:26.377Z,4.83
2022-08-25T08:22:53.263Z,4.70
2022-08-25T08:25:21.591Z,4.43
2022-08-25T08:27:54.995Z,4.50
2022-08-25T08:30:25.949Z,4.57
2022-08-25T08:33:09.311Z,5.10
2022-08-25T08:35:37.489Z,4.60
2022-08-25T08:38:13.171Z,4.77
2022-08-25T08:41:21.541Z,4.83
2022-08-25T08:43:56.424Z,4.87
2022-08-25T08:46:25.939Z,5.17
2022-08-25T08:49:02.091Z,4.77
2022-08-25T08:51:45.926Z,6.93
2022-08-25T08:54:18.731Z,6.00
2022-08-25T08:56:50.717Z,5.47
2022-08-25T08:59:30.076Z,7.50
2022-08-25T09:02:04.044Z,7.00
2022-08-25T09:04:59.241Z,7.90
2022-08-25T09:07:36.709Z,7.57
2022-08-25T09:10:10.800Z,8.67
2022-08-25T09:12:48.190Z,9.80
2022-08-25T09:15:47.539Z,9.57
2022-08-25T09:18:29.911Z,8.60
2022-08-25T09:21:23.986Z,9.00
2022-08-25T09:24:02.874Z,9.63
2022-08-25T09:27:07.684Z,9.37
2022-08-25T09:29:49.893Z,8.97
2022-08-25T09:32:24.212Z,7.50
2022-08-25T09:34:59.600Z,8.77
2022-08-25T09:37:26.913Z,8.37
2022-08-25T09:39:55.319Z,8.40
2022-08-25T09:42:51.401Z,9.50
2022-08-25T09:45:40.381Z,8.97
2022-08-25T09:48:23.385Z,8.67
2022-08-25T09:50:52.950Z,8.50
2022-08-25T09:53:21.712Z,8.97
2022-08-25T09:56:00.589Z,8.53
2022-08-25T09:58:27.862Z,10.40
2022-08-25T10:01:26.909Z,9.10
2022-08-25T10:04:05.601Z,8.70
2022-08-25T10:06:47.125Z,8.40
2022-08-25T10:09:33.093Z,7.70
2022-08-25T10:12:04.982Z,8.10
2022-08-25T10:14:32.796Z,9.20
2022-08-25T10:17:17.015Z,8.37
2022-08-25T10:19:44.221Z,7.67
2022-08-25T10:22:32.970Z,8.80
2022-08-25T10:25:00.597Z,10.13
2022-08-25T10:27:46.498Z,8.57
2022-08-25T10:30:31.446Z,8.87
2022-08-25T10:33:18.352Z,7.80
2022-08-25T10:36:01.743Z,8.13
2022-08-25T10:38:47.724Z,7.70
2022-08-25T10:41:26.618Z,7.90
2022-08-25T10:44:36.180Z,7.87
2022-08-25T10:47:33.436Z,8.03
2022-08-25T10:50:13.471Z,7.67
2022-08-25T10:53:18.245Z,7.83
2022-08-25T10:55:55.443Z,8.70
2022-08-25T10:58:56.817Z,7.30
2022-08-25T11:01:47.965Z,7.50
2022-08-25T11:04:39.519Z,6.50
2022-08-25T11:07:25.058Z,5.83
2022-08-25T11:09:57.725Z,6.43
2022-08-25T11:12:33.535Z,7.03
2022-08-25T11:15:08.507Z,7.70
2022-08-25T11:17:50.337Z,7.10
2022-08-25T11:20:26.783Z,5.97
2022-08-25T11:23:09.050Z,5.97
2022-08-25T11:25:43.377Z,6.73
2022-08-25T11:28:16.385Z,6.30
2022-08-25T11:30:44.599Z,6.10
2022-08-25T11:33:19.501Z,6.70
2022-08-25T11:36:15.287Z,6.30
2022-08-25T11:39:06.791Z,6.57
2022-08-25T11:41:41.638Z,6.20
2022-08-25T11:44:27.086Z,6.90
2022-08-25T11:47:00.097Z,6.50
2022-08-25T11:49:42.897Z,8.00
2022-08-25T11:52:31.559Z,7.00
2022-08-25T11:55:22.772Z,6.23
2022-08-25T11:57:53.577Z,6.73
2022-08-25T12:00:37.866Z,6.40
2022-08-25T12:03:36.891Z,5.10
2022-08-25T12:06:29.126Z,6.50
2022-08-25T12:09:05.858Z,5.73
2022-08-25T12:11:38.721Z,6.43
2022-08-25T12:14:28.104Z,6.00
2022-08-25T12:16:55.418Z,6.67
2022-08-25T12:19:48.758Z,6.23
2022-08-25T12:22:16.130Z,6.20
2022-08-25T12:24:47.546Z,6.33
2022-08-25T12:27:42.968Z,6.47
2022-08-25T12:30:18.345Z,5.43
2022-08-25T12:33:18.359Z,5.77
2022-08-25T12:36:01.311Z,5.80
2022-08-25T12:38:43.269Z,6.20
2022-08-25T12:41:14.695Z,5.90
2022-08-25T12:43:50.282Z,6.27
2022-08-25T12:46:23.123Z,5.87
2022-08-25T12:49:28.718Z,5.17
2022-08-25T12:52:04.910Z,5.60
2022-08-25T12:54:54.642Z,5.57
2022-08-25T12:57:32.627Z,4.10
2022-08-25T13:00:05.700Z,4.90
2022-08-25T13:03:08.121Z,4.37
2022-08-25T13:05:50.102Z,5.03
2022-08-25T13:08:50.023Z,4.90
2022-08-25T13:11:20.417Z,4.57
2022-08-25T13:14:01.474Z,5.43
2022-08-25T13:16:30.351Z,4.70
2022-08-25T13:19:01.826Z,5.90
2022-08-25T13:21:30.891Z,4.77
2022-08-25T13:24:05.841Z,5.33
2022-08-25T13:26:37.563Z,4.83
2022-08-25T13:29:17.893Z,5.70
2022-08-25T13:31:57.698Z,5.30
2022-08-25T13:34:34.846Z,5.00
2022-08-25T13:37:29.817Z,4.53
2022-08-25T13:40:26.700Z,5.30
2022-08-25T13:43:02.693Z,5.23
2022-08-25T13:45:40.917Z,4.87
2022-08-25T13:48:22.432Z,4.90
2022-08-25T13:50:51.875Z,3.30
2022-08-25T13:53:26.255Z,4.10
2022-08-25T13:55:57.411Z,3.90
2022-08-25T13:58:44.786Z,4.30
2022-08-25T14:01:47.085Z,4.20
2022-08-25T14:04:27.343Z,4.90
2022-08-25T14:07:21.030Z,4.97
2022-08-25T14:10:00.262Z,3.90
2022-08-25T14:12:33.247Z,4.60
2022-08-25T14:15:05.221Z,4.17
2022-08-25T14:17:39.050Z,4.93
2022-08-25T14:20:29.225Z,5.20
2022-08-25T14:23:00.354Z,3.67
2022-08-25T14:25:30.362Z,4.20
2022-08-25T14:28:10.747Z,4.40
2022-08-25T14:30:46.502Z,4.67
2022-08-25T14:33:14.579Z,4.43
2022-08-25T14:35:45.565Z,4.50
2022-08-25T14:38:15.193Z,4.30
2022-08-25T14:40:44.688Z,4.33
2022-08-25T14:43:12.345Z,4.50
2022-08-25T14:45:42.982Z,4.57
2022-08-25T14:48:15.818Z,3.90
2022-08-25T14:50:42.714Z,4.00
2022-08-25T14:53:11.775Z,4.10
2022-08-25T14:55:38.945Z,4.80
2022-08-25T14:58:06.978Z,4.87
2022-08-25T15:00:37.340Z,4.97
2022-08-25T15:03:04.774Z,4.97
2022-08-25T15:05:32.050Z,5.20
2022-08-25T15:08:17.480Z,4.83
2022-08-25T15:10:44.519Z,4.83
2022-08-25T15:13:11.398Z,5.73
2022-08-25T15:15:52.479Z,5.17
2022-08-25T15:18:21.612Z,5.00
2022-08-25T15:20:49.992Z,4.73
2022-08-25T15:23:18.467Z,5.30
2022-08-25T15:25:47.481Z,4.93
2022-08-25T15:28:17.378Z,5.10
2022-08-25T15:30:45.746Z,4.97
2022-08-25T15:33:13.784Z,5.20
2022-08-25T15:35:41.429Z,4.53
2022-08-25T15:38:08.616Z,5.57
2022-08-25T15:40:39.044Z,5.90
2022-08-25T15:43:06.853Z,4.43
2022-08-25T15:45:36.396Z,4.93
2022-08-25T15:48:06.757Z,4.60
2022-08-25T15:50:36.601Z,5.00
2022-08-25T15:53:03.814Z,4.30
2022-08-25T15:55:39.138Z,5.03
2022-08-25T15:58:08.909Z,4.90
2022-08-25T16:00:37.767Z,5.30
2022-08-25T16:03:07.030Z,5.30
2022-08-25T16:05:37.631Z,5.20
2022-08-25T16:08:05.623Z,5.97
2022-08-25T16:10:39.651Z,4.73
2022-08-25T16:13:08.030Z,5.80
2022-08-25T16:15:36.110Z,4.93
2022-08-25T16:18:04.775Z,5.53
2022-08-25T16:20:34.551Z,5.27
2022-08-25T16:23:03.922Z,5.20
2022-08-25T16:25:31.697Z,5.60
2022-08-25T16:27:58.555Z,5.57
2022-08-25T16:30:27.426Z,5.57
2022-08-25T16:32:54.851Z,5.33
2022-08-25T16:35:23.685Z,5.13
2022-08-25T16:37:50.647Z,5.33
2022-08-25T16:40:20.149Z,5.67
2022-08-25T16:42:48.542Z,5.10
2022-08-25T16:45:15.679Z,5.33
2022-08-25T16:47:43.373Z,5.20
2022-08-25T16:50:11.169Z,5.13
2022-08-25T16:52:58.105Z,6.03
2022-08-25T16:55:26.325Z,5.43
2022-08-25T16:57:54.454Z,5.53
2022-08-25T17:00:24.932Z,5.90
2022-08-25T17:02:59.302Z,5.13
2022-08-25T17:05:28.750Z,5.07
2022-08-25T17:08:15.476Z,6.10
2022-08-25T17:10:43.641Z,5.53
2022-08-25T17:13:11.438Z,5.87
2022-08-25T17:15:46.957Z,5.97
2022-08-25T17:18:13.987Z,6.03
2022-08-25T17:20:44.626Z,6.50
2022-08-25T17:23:12.943Z,6.23
2022-08-25T17:25:43.243Z,6.70
2022-08-25T17:28:12.791Z,6.77
2022-08-25T17:30:40.694Z,6.10
2022-08-25T17:33:08.163Z,6.53
2022-08-25T17:35:47.161Z,5.97
2022-08-25T17:38:25.913Z,7.57
2022-08-25T17:40:55.110Z,7.27
2022-08-25T17:43:24.071Z,7.20
2022-08-25T17:45:52.459Z,7.40
2022-08-25T17:48:20.291Z,6.47
2022-08-25T17:50:47.496Z,6.77
2022-08-25T17:53:14.471Z,6.37
2022-08-25T17:55:44.403Z,6.07
2022-08-25T17:58:15.535Z,6.80
2022-08-25T18:00:45.569Z,6.70
2022-08-25T18:03:12.887Z,7.50
2022-08-25T18:05:40.664Z,7.70
2022-08-25T18:08:10.334Z,5.73
2022-08-25T18:10:38.243Z,6.63
2022-08-25T18:13:05.460Z,6.60
2022-08-25T18:15:33.514Z,6.63
2022-08-25T18:18:01.844Z,6.60
2022-08-25T18:20:31.659Z,7.20
2022-08-25T18:22:58.909Z,7.23
2022-08-25T18:25:26.899Z,6.90
2022-08-25T18:27:55.338Z,7.33
2022-08-25T18:30:23.174Z,6.90
2022-08-25T18:32:53.161Z,6.97
2022-08-25T18:35:22.139Z,6.90
2022-08-25T18:38:12.457Z,7.00
2022-08-25T18:40:40.002Z,7.30
2022-08-25T18:43:09.450Z,7.27
2022-08-25T18:45:43.563Z,7.33
2022-08-25T18:48:11.194Z,7.47
2022-08-25T18:50:43.343Z,7.43
2022-08-25T18:53:11.487Z,7.13
2022-08-25T18:55:39.966Z,6.80
2022-08-25T18:58:08.111Z,7.57
2022-08-25T19:00:37.119Z,7.60
2022-08-25T19:03:04.962Z,7.07
2022-08-25T19:05:34.473Z,7.37
2022-08-25T19:08:03.647Z,7.07
2022-08-25T19:10:31.226Z,7.10
2022-08-25T19:12:59.185Z,7.67
2022-08-25T19:15:35.631Z,7.47
2022-08-25T19:18:04.946Z,7.33
2022-08-25T19:20:34.734Z,7.03
2022-08-25T19:23:02.157Z,7.20
2022-08-25T19:25:33.056Z,6.67
2022-08-25T19:28:01.080Z,8.00
2022-08-25T19:30:29.749Z,7.00
2022-08-25T19:32:57.591Z,7.07
2022-08-25T19:35:37.650Z,7.40
2022-08-25T19:38:33.349Z,7.50
2022-08-25T19:40:55.375Z,7.73
2022-08-25T19:43:22.283Z,8.60
2022-08-25T19:45:51.178Z,8.23
2022-08-25T19:48:18.626Z,8.00
2022-08-25T19:50:46.029Z,7.23
2022-08-25T19:53:13.019Z,7.30
2022-08-25T19:55:42.764Z,7.47
2022-08-25T19:58:11.501Z,7.23
2022-08-25T20:00:40.245Z,7.40
2022-08-25T20:03:08.137Z,6.73
2022-08-25T20:05:36.918Z,7.27
2022-08-25T20:08:05.789Z,7.47
2022-08-25T20:10:39.492Z,7.10
2022-08-25T20:13:09.330Z,7.60
2022-08-25T20:15:37.198Z,8.37
2022-08-25T20:18:08.166Z,8.23
2022-08-25T20:20:35.641Z,7.60
2022-08-25T20:23:22.820Z,7.70
2022-08-25T20:25:50.195Z,8.00
2022-08-25T20:28:18.784Z,6.90
2022-08-25T20:30:46.635Z,8.03
2022-08-25T20:33:13.697Z,7.23
2022-08-25T20:35:49.874Z,6.80
2022-08-25T20:38:20.195Z,7.53
2022-08-25T20:40:47.183Z,7.90
2022-08-25T20:43:15.702Z,7.60
2022-08-25T20:45:42.764Z,6.50
2022-08-25T20:48:09.998Z,6.87
2022-08-25T20:50:38.789Z,7.03
2022-08-25T20:53:10.094Z,7.10
2022-08-25T20:55:43.743Z,7.10
2022-08-25T20:58:11.275Z,7.70
2022-08-25T21:00:45.603Z,7.23
2022-08-25T21:03:12.686Z,8.47
2022-08-25T21:05:41.434Z,7.53
2022-08-25T21:08:08.846Z,7.47
2022-08-25T21:10:37.834Z,8.13
2022-08-25T21:13:04.841Z,8.63
2022-08-25T21:15:31.725Z,8.93
2022-08-25T21:17:59.029Z,8.00
2022-08-25T21:20:27.038Z,7.90
2022-08-25T21:22:54.446Z,8.20
2022-08-25T21:25:21.856Z,6.90
2022-08-25T21:27:49.231Z,8.30
2022-08-25T21:30:16.348Z,7.90
2022-08-25T21:32:53.470Z,8.13
2022-08-25T21:35:22.469Z,7.90
2022-08-25T21:37:53.113Z,8.30
2022-08-25T21:40:23.047Z,7.10
2022-08-25T21:42:50.617Z,8.30
2022-08-25T21:45:20.838Z,7.90
2022-08-25T21:47:48.791Z,8.30
2022-08-25T21:50:15.701Z,8.00
2022-08-25T21:52:42.583Z,7.93
2022-08-25T21:55:15.685Z,8.33
2022-08-25T21:57:43.844Z,8.77
2022-08-25T22:00:13.329Z,9.07
2022-08-25T22:02:40.273Z,8.20
2022-08-25T22:05:11.601Z,7.53
2022-08-25T22:07:44.000Z,7.97
2022-08-25T22:10:17.571Z,8.67
2022-08-25T22:12:46.453Z,7.57
2022-08-25T22:15:15.570Z,8.50
2022-08-25T22:17:42.500Z,8.10
2022-08-25T22:20:10.444Z,8.20
2022-08-25T22:22:37.349Z,9.00
2022-08-25T22:25:05.300Z,9.17
2022-08-25T22:27:32.944Z,9.20
2022-08-25T22:30:01.009Z,9.07
2022-08-25T22:32:27.905Z,8.70
2022-08-25T22:34:54.811Z,8.47
2022-08-25T22:37:22.406Z,9.33
2022-08-25T22:39:49.668Z,8.60
2022-08-25T22:42:17.250Z,8.80
2022-08-25T22:44:44.426Z,8.40
2022-08-25T22:47:11.859Z,9.23
2022-08-25T22:49:40.249Z,8.70
2022-08-25T22:52:09.412Z,8.00
2022-08-25T22:54:39.619Z,8.30
2022-08-25T22:57:06.991Z,8.90
2022-08-25T22:59:34.206Z,7.57
2022-08-25T23:02:01.178Z,8.60
2022-08-25T23:04:28.359Z,8.80
2022-08-25T23:06:55.301Z,9.57
2022-08-25T23:09:24.836Z,8.80
2022-08-25T23:11:52.131Z,8.37
2022-08-25T23:14:20.078Z,8.87
2022-08-25T23:16:49.968Z,8.87
2022-08-25T23:19:17.658Z,7.80
2022-08-25T23:22:03.767Z,8.83
2022-08-25T23:24:31.678Z,8.20
2022-08-25T23:27:00.755Z,9.50
2022-08-25T23:29:28.151Z,8.80
2022-08-25T23:31:56.241Z,8.90
2022-08-25T23:34:23.794Z,9.00
2022-08-25T23:36:50.765Z,9.40
2022-08-25T23:39:18.176Z,9.63
2022-08-25T23:41:45.271Z,9.63
2022-08-25T23:44:17.313Z,9.87
2022-08-25T23:46:45.141Z,9.47
2022-08-25T23:49:12.460Z,9.20
2022-08-25T23:51:41.213Z,8.80
2022-08-25T23:54:10.946Z,9.00
2022-08-25T23:56:42.308Z,8.77
2022-08-25T23:59:19.528Z,9.30
